»·PEaware :: N171MA 2O7-3L2

N171MA :: 2O7-3L2

FLIGHT INFORMATION

Flight Status: Arrived
Operator: Privately registered:
United States
More flights under this callsign
Pilot: Tim M. (868)
Aircraft: BEECH AIRCRAFT BONANZA
(BE36)
More flights by this aircraft type
Origin: 2O7 Independence
United States
Destination: 3L2 Sky Ranch
United States
More flights between these airports :: More routes between these airports
Route:
File this flight plan on PilotEdge
Remarks:
Altitude:
(Current/Filed)
9,500ft
Speed:
(Current/Filed)
140kts
Departed: 01-Nov-20 09:34 PM
Arrived: 01-Nov-20 10:45 PM
Distance/Time
Traveled:
139nm/1:10
Distance/Time
To Go:
Arrived

Flight Plot

Page will automatically refresh every two minutes.


Map Options




Map Legend


Flown Route
Filed Route
Departure Airport
Arrival Airport
Navaid (VOR, NDB)
Fix

Horizontal Profiles

Position Reports

Time Latitude Longitude Heading Altitude Ground
Speed
01-Nov-20 21:32 36.805544 -118.199021 146 4181ft 94kts
01-Nov-20 21:34 36.782072 -118.180266 150 4913ft 103kts
01-Nov-20 21:35 36.755341 -118.161051 144 5375ft 127kts
01-Nov-20 21:36 36.725316 -118.134864 144 5807ft 124kts
01-Nov-20 21:37 36.699954 -118.112702 144 6725ft 98kts
01-Nov-20 21:38 36.676792 -118.092287 144 7338ft 106kts
01-Nov-20 21:39 36.651606 -118.069963 144 7865ft 114kts
01-Nov-20 21:40 36.625148 -118.046513 144 8366ft 117kts
01-Nov-20 21:41 36.598782 -118.023118 144 8847ft 117kts
01-Nov-20 21:42 36.572264 -117.999672 144 9334ft 115kts
01-Nov-20 21:43 36.564446 -117.967360 72 9739ft 117kts
01-Nov-20 21:44 36.580785 -117.931779 60 10097ft 119kts
01-Nov-20 21:45 36.589829 -117.894034 103 10418ft 119kts
01-Nov-20 21:46 36.581900 -117.853943 103 10711ft 123kts
01-Nov-20 21:47 36.573399 -117.810725 103 10748ft 132kts
01-Nov-20 21:48 36.565961 -117.762277 98 10405ft 148kts
01-Nov-20 21:48 36.558755 -117.722331 101 10443ft 138kts
01-Nov-20 21:50 36.550258 -117.666504 101 10385ft 133kts
01-Nov-20 21:51 36.541531 -117.621945 99 10459ft 134kts
01-Nov-20 21:51 36.537489 -117.582709 99 10413ft 139kts
01-Nov-20 21:53 36.526665 -117.528877 103 10339ft 141kts
01-Nov-20 21:53 36.520038 -117.490406 102 10436ft 133kts
01-Nov-20 21:54 36.513664 -117.443954 94 10478ft 132kts
01-Nov-20 21:55 36.511304 -117.397401 101 10434ft 138kts
01-Nov-20 21:56 36.502194 -117.350385 102 10277ft 141kts
01-Nov-20 21:57 36.494411 -117.305700 100 10423ft 133kts
01-Nov-20 21:58 36.486785 -117.260296 103 10431ft 134kts
01-Nov-20 21:59 36.479871 -117.214527 100 10406ft 134kts
01-Nov-20 22:00 36.472469 -117.169671 109 10408ft 133kts
01-Nov-20 22:01 36.465916 -117.126101 100 10469ft 134kts
01-Nov-20 22:02 36.459039 -117.079992 93 10457ft 136kts
01-Nov-20 22:03 36.460591 -117.031686 90 10327ft 140kts
01-Nov-20 22:04 36.457336 -116.986134 98 10412ft 137kts
01-Nov-20 22:05 36.453464 -116.939305 97 10377ft 134kts
01-Nov-20 22:06 36.449734 -116.893806 99 10395ft 128kts
01-Nov-20 22:07 36.448741 -116.849866 109 10424ft 129kts
01-Nov-20 22:08 36.442354 -116.805550 105 10440ft 130kts
01-Nov-20 22:09 36.432017 -116.762257 106 10417ft 132kts
01-Nov-20 22:10 36.418343 -116.719822 118 10400ft 132kts
01-Nov-20 22:11 36.401792 -116.679136 117 10384ft 131kts
01-Nov-20 22:12 36.386178 -116.638170 114 10352ft 130kts
01-Nov-20 22:13 36.372263 -116.595913 113 10393ft 130kts
01-Nov-20 22:14 36.360810 -116.552355 109 10386ft 134kts
01-Nov-20 22:15 36.348340 -116.509051 112 10419ft 134kts
01-Nov-20 22:16 36.335146 -116.466158 119 10479ft 134kts
01-Nov-20 22:17 36.315347 -116.425929 122 10365ft 137kts
01-Nov-20 22:18 36.298896 -116.383853 115 10381ft 129kts
01-Nov-20 22:19 36.282109 -116.343272 112 10372ft 130kts
01-Nov-20 22:20 36.265443 -116.303228 119 10389ft 131kts
01-Nov-20 22:21 36.253293 -116.260057 103 10354ft 132kts
01-Nov-20 22:22 36.248506 -116.215200 118 10402ft 133kts
01-Nov-20 22:23 36.224032 -116.180590 131 10405ft 135kts
01-Nov-20 22:24 36.198444 -116.146297 132 10348ft 136kts
01-Nov-20 22:25 36.175171 -116.109466 126 10303ft 136kts
01-Nov-20 22:26 36.152502 -116.073698 129 10348ft 135kts
01-Nov-20 22:27 36.127537 -116.039608 125 10324ft 135kts
01-Nov-20 22:28 36.104288 -116.003841 125 10439ft 126kts
01-Nov-20 22:29 36.079352 -115.970522 132 10369ft 135kts
01-Nov-20 22:30 36.056661 -115.934381 125 10337ft 137kts
01-Nov-20 22:31 36.032911 -115.897310 134 10245ft 137kts
01-Nov-20 22:32 36.006338 -115.866404 133 10387ft 131kts
01-Nov-20 22:33 35.979292 -115.835158 133 10290ft 140kts
01-Nov-20 22:34 35.952008 -115.800736 136 9318ft 144kts
01-Nov-20 22:35 35.923679 -115.767334 135 8436ft 139kts
01-Nov-20 22:36 35.896096 -115.734287 133 7579ft 138kts
01-Nov-20 22:37 35.864058 -115.707395 151 6694ft 139kts
01-Nov-20 22:38 35.832701 -115.682158 142 6072ft 134kts
01-Nov-20 22:39 35.801985 -115.657895 143 4845ft 124kts
01-Nov-20 22:40 35.791062 -115.623923 45 3893ft 119kts
01-Nov-20 22:41 35.802712 -115.607389 250 3404ft 109kts
01-Nov-20 22:42 35.781003 -115.627777 233 3403ft 93kts
01-Nov-20 22:43 35.794728 -115.627980 38 2595ft 74kts
01-Nov-20 22:44 35.796864 -115.623756 97 2579ft 0kts

Navigation Log

Ident Type
Flight plan parsing failed, navigation log unavailable